Terminal Aerodrome Forecast
Issued by NWS Sioux Falls, SD

Home | Current Version | Previous Version | Text Only | Print | Product List | Glossary On
Versions: 1 2 3 4 5 6 7 8 9 10 11 12 13 14 15 16 17 18 19 20 21 22 23 24 25 26 27
000
FTUS43 KFSD 261131
TAFHON
TAF
KHON 261131Z 2612/2712 35005KT P6SM OVC008
     FM261500 05009KT P6SM OVC015
     FM261800 07010KT P6SM BKN025
     FM262100 06012G18KT P6SM BKN035
     FM270000 06014G21KT P6SM VCSH OVC025
     FM270100 06014G21KT P6SM SHRA OVC020
     FM270400 06014G21KT 5SM SHRA OVC010=

USA.gov is the U.S. government's official web portal to all federal, state and local government web resources and services.